sensor_id;sensor_type;location;lat;lon;timestamp;pressure;altitude;pressure_sealevel;temperature;humidity
69955;BME280;57279;55.912;37.490;2023-02-26T08:25:43;97006.34;;;1.74;77.93
69955;BME280;57279;55.912;37.490;2023-02-26T08:28:11;97018.00;;;1.63;76.72
69955;BME280;57279;55.912;37.490;2023-02-26T08:30:37;97025.47;;;1.71;76.83
69955;BME280;57279;55.912;37.490;2023-02-26T08:33:03;97023.72;;;1.97;76.61
69955;BME280;57279;55.912;37.490;2023-02-26T08:35:28;97038.91;;;2.07;76.02
69955;BME280;57279;55.912;37.490;2023-02-26T08:37:54;97030.13;;;2.06;75.32
69955;BME280;57279;55.912;37.490;2023-02-26T08:40:20;97054.34;;;2.05;74.98
69955;BME280;57279;55.912;37.490;2023-02-26T08:42:46;97047.69;;;2.07;74.86
69955;BME280;57279;55.912;37.490;2023-02-26T08:45:12;97061.41;;;1.79;75.39
69955;BME280;57279;55.912;37.490;2023-02-26T08:47:38;97065.84;;;1.58;76.59
69955;BME280;57279;55.912;37.490;2023-02-26T08:50:06;97074.69;;;1.26;76.84
69955;BME280;57279;55.912;37.490;2023-02-26T08:52:32;97081.25;;;1.13;75.83
69955;BME280;57279;55.912;37.490;2023-02-26T08:54:58;97077.59;;;1.24;75.51
69955;BME280;57279;55.912;37.490;2023-02-26T08:57:23;97081.41;;;1.33;75.42
69955;BME280;57279;55.912;37.490;2023-02-26T08:59:49;97100.00;;;1.33;74.41
69955;BME280;57279;55.912;37.490;2023-02-26T09:02:15;97094.78;;;1.49;74.23
69955;BME280;57279;55.912;37.490;2023-02-26T09:04:40;97103.81;;;1.48;73.81
69955;BME280;57279;55.912;37.490;2023-02-26T09:07:06;97113.47;;;1.59;73.56
69955;BME280;57279;55.912;37.490;2023-02-26T09:09:31;97108.38;;;1.58;73.65
69955;BME280;57279;55.912;37.490;2023-02-26T09:11:57;97102.03;;;1.59;73.42
69955;BME280;57279;55.912;37.490;2023-02-26T09:14:23;97106.84;;;1.67;73.22
69955;BME280;57279;55.912;37.490;2023-02-26T09:16:49;97110.59;;;1.71;73.59
69955;BME280;57279;55.912;37.490;2023-02-26T09:19:16;97122.09;;;1.82;72.83
69955;BME280;57279;55.912;37.490;2023-02-26T09:21:41;97117.56;;;1.82;73.17
69955;BME280;57279;55.912;37.490;2023-02-26T09:24:07;97125.31;;;1.84;72.66
69955;BME280;57279;55.912;37.490;2023-02-26T09:26:33;97128.75;;;1.79;72.76
69955;BME280;57279;55.912;37.490;2023-02-26T09:28:59;97129.59;;;1.85;72.63
69955;BME280;57279;55.912;37.490;2023-02-26T09:31:24;97121.81;;;1.78;72.51
69955;BME280;57279;55.912;37.490;2023-02-26T09:33:50;97136.19;;;1.82;72.32
69955;BME280;57279;55.912;37.490;2023-02-26T09:36:16;97146.91;;;1.92;72.31
69955;BME280;57279;55.912;37.490;2023-02-26T09:38:41;97143.69;;;1.90;71.95
69955;BME280;57279;55.912;37.490;2023-02-26T09:41:59;97146.59;;;1.84;72.74
69955;BME280;57279;55.912;37.490;2023-02-26T09:47:19;97146.69;;;1.99;72.75
69955;BME280;57279;55.912;37.490;2023-02-26T09:49:49;97149.94;;;2.11;72.22
69955;BME280;57279;55.912;37.490;2023-02-26T09:54:48;97156.59;;;2.14;71.72
69955;BME280;57279;55.912;37.490;2023-02-26T09:57:42;97162.72;;;2.14;72.07
69955;BME280;57279;55.912;37.490;2023-02-26T10:00:17;97175.03;;;2.26;73.03
69955;BME280;57279;55.912;37.490;2023-02-26T10:03:05;97170.19;;;2.23;71.72
69955;BME280;57279;55.912;37.490;2023-02-26T10:05:47;97178.00;;;2.40;71.69
69955;BME280;57279;55.912;37.490;2023-02-26T10:08:17;97165.16;;;2.26;72.11
69955;BME280;57279;55.912;37.490;2023-02-26T10:10:49;97174.44;;;2.13;70.50
69955;BME280;57279;55.912;37.490;2023-02-26T10:13:31;97182.91;;;2.05;70.58
69955;BME280;57279;55.912;37.490;2023-02-26T10:16:04;97186.09;;;2.02;70.29
69955;BME280;57279;55.912;37.490;2023-02-26T10:18:36;97184.19;;;1.98;70.29
69955;BME280;57279;55.912;37.490;2023-02-26T10:23:59;97185.06;;;2.08;70.61
69955;BME280;57279;55.912;37.490;2023-02-26T10:29:58;97198.22;;;2.30;70.19
69955;BME280;57279;55.912;37.490;2023-02-26T10:32:32;97190.53;;;2.39;70.26
69955;BME280;57279;55.912;37.490;2023-02-26T10:35:13;97220.06;;;2.38;70.90
69955;BME280;57279;55.912;37.490;2023-02-26T10:37:57;97206.22;;;2.30;70.97
69955;BME280;57279;55.912;37.490;2023-02-26T10:40:30;97203.75;;;2.19;72.15
69955;BME280;57279;55.912;37.490;2023-02-26T10:43:03;97209.34;;;2.17;72.02
69955;BME280;57279;55.912;37.490;2023-02-26T10:45:39;97208.06;;;2.30;72.20
69955;BME280;57279;55.912;37.490;2023-02-26T10:48:48;97215.03;;;2.41;71.90
69955;BME280;57279;55.912;37.490;2023-02-26T10:51:23;97216.16;;;2.50;71.75
69955;BME280;57279;55.912;37.490;2023-02-26T10:54:32;97225.47;;;2.48;71.18
69955;BME280;57279;55.912;37.490;2023-02-26T10:57:00;97223.63;;;2.53;71.59
69955;BME280;57279;55.912;37.490;2023-02-26T10:59:26;97215.34;;;2.55;71.12
69955;BME280;57279;55.912;37.490;2023-02-26T11:01:53;97215.63;;;2.59;70.79
69955;BME280;57279;55.912;37.490;2023-02-26T11:04:24;97221.50;;;2.61;70.63
69955;BME280;57279;55.912;37.490;2023-02-26T11:06:59;97219.66;;;2.61;69.86
69955;BME280;57279;55.912;37.490;2023-02-26T11:11:55;97224.75;;;2.68;68.97
69955;BME280;57279;55.912;37.490;2023-02-26T11:14:26;97215.13;;;2.62;68.34
69955;BME280;57279;55.912;37.490;2023-02-26T11:16:54;97224.69;;;2.52;67.92
69955;BME280;57279;55.912;37.490;2023-02-26T11:19:41;97218.03;;;2.50;67.82
69955;BME280;57279;55.912;37.490;2023-02-26T11:22:13;97235.59;;;2.51;68.13
69955;BME280;57279;55.912;37.490;2023-02-26T11:24:43;97237.47;;;2.50;68.27
69955;BME280;57279;55.912;37.490;2023-02-26T11:27:14;97228.69;;;2.55;67.48
69955;BME280;57279;55.912;37.490;2023-02-26T11:29:47;97234.81;;;2.61;67.89
69955;BME280;57279;55.912;37.490;2023-02-26T11:32:32;97238.34;;;2.71;67.92
69955;BME280;57279;55.912;37.490;2023-02-26T11:34:58;97232.00;;;2.83;66.84
69955;BME280;57279;55.912;37.490;2023-02-26T11:37:34;97234.91;;;2.81;66.07
69955;BME280;57279;55.912;37.490;2023-02-26T11:40:06;97226.41;;;2.84;66.01
69955;BME280;57279;55.912;37.490;2023-02-26T11:42:42;97231.78;;;3.00;65.97
69955;BME280;57279;55.912;37.490;2023-02-26T11:45:13;97227.53;;;3.04;65.29
69955;BME280;57279;55.912;37.490;2023-02-26T11:47:41;97228.84;;;3.01;65.49
69955;BME280;57279;55.912;37.490;2023-02-26T11:50:16;97231.53;;;3.11;65.23
69955;BME280;57279;55.912;37.490;2023-02-26T11:52:45;97221.69;;;3.17;64.56
69955;BME280;57279;55.912;37.490;2023-02-26T11:55:38;97231.84;;;3.30;64.72
69955;BME280;57279;55.912;37.490;2023-02-26T11:58:23;97233.44;;;3.26;64.33
69955;BME280;57279;55.912;37.490;2023-02-26T12:00:53;97234.50;;;3.20;64.59
69955;BME280;57279;55.912;37.490;2023-02-26T12:03:21;97239.28;;;3.13;64.74
69955;BME280;57279;55.912;37.490;2023-02-26T12:05:49;97259.00;;;3.07;64.96
69955;BME280;57279;55.912;37.490;2023-02-26T12:08:25;97289.22;;;2.70;66.17
69955;BME280;57279;55.912;37.490;2023-02-26T12:13:50;97298.09;;;1.95;74.34
69955;BME280;57279;55.912;37.490;2023-02-26T12:16:30;97299.03;;;1.52;75.53
69955;BME280;57279;55.912;37.490;2023-02-26T12:19:15;97306.25;;;1.29;75.45
69955;BME280;57279;55.912;37.490;2023-02-26T12:27:00;97310.25;;;0.61;78.13
69955;BME280;57279;55.912;37.490;2023-02-26T12:29:31;97309.66;;;0.36;79.31
69955;BME280;57279;55.912;37.490;2023-02-26T12:38:08;97307.16;;;0.47;80.06
69955;BME280;57279;55.912;37.490;2023-02-26T12:43:23;97305.91;;;0.54;79.25
69955;BME280;57279;55.912;37.490;2023-02-26T12:51:21;97308.16;;;0.85;77.68
69955;BME280;57279;55.912;37.490;2023-02-26T13:21:07;97345.66;;;1.10;67.87
69955;BME280;57279;55.912;37.490;2023-02-26T13:23:55;97357.16;;;0.94;67.72
69955;BME280;57279;55.912;37.490;2023-02-26T13:26:23;97362.66;;;0.87;67.67
69955;BME280;57279;55.912;37.490;2023-02-26T13:31:33;97365.25;;;1.04;66.58
69955;BME280;57279;55.912;37.490;2023-02-26T13:34:13;97367.09;;;0.82;67.11
69955;BME280;57279;55.912;37.490;2023-02-26T13:36:40;97387.31;;;0.83;67.69
69955;BME280;57279;55.912;37.490;2023-02-26T13:39:29;97387.78;;;0.80;68.22
69955;BME280;57279;55.912;37.490;2023-02-26T13:47:39;97407.38;;;0.23;70.87
69955;BME280;57279;55.912;37.490;2023-02-26T13:50:26;97413.19;;;0.19;70.37
69955;BME280;57279;55.912;37.490;2023-02-26T13:53:03;97435.78;;;0.22;70.22
69955;BME280;57279;55.912;37.490;2023-02-26T13:55:43;97440.84;;;0.07;70.86
69955;BME280;57279;55.912;37.490;2023-02-26T14:03:35;97464.81;;;-0.57;69.22
69955;BME280;57279;55.912;37.490;2023-02-26T14:08:49;97481.91;;;-0.65;70.71
69955;BME280;57279;55.912;37.490;2023-02-26T14:14:05;97470.28;;;-0.64;69.37
69955;BME280;57279;55.912;37.490;2023-02-26T14:16:34;97472.31;;;-0.54;68.91
69955;BME280;57279;55.912;37.490;2023-02-26T14:19:13;97479.69;;;-0.56;68.35
69955;BME280;57279;55.912;37.490;2023-02-26T14:22:01;97479.94;;;-0.58;67.48
69955;BME280;57279;55.912;37.490;2023-02-26T14:24:38;97487.63;;;-0.45;66.66
69955;BME280;57279;55.912;37.490;2023-02-26T14:27:20;97486.59;;;-0.44;66.22
69955;BME280;57279;55.912;37.490;2023-02-26T14:30:03;97491.38;;;-0.29;66.97
69955;BME280;57279;55.912;37.490;2023-02-26T14:32:52;97488.97;;;-0.30;65.71
69955;BME280;57279;55.912;37.490;2023-02-26T14:35:27;97491.06;;;-0.32;65.71
69955;BME280;57279;55.912;37.490;2023-02-26T14:37:58;97501.78;;;-0.39;66.26
69955;BME280;57279;55.912;37.490;2023-02-26T14:40:25;97491.94;;;-0.27;65.33
69955;BME280;57279;55.912;37.490;2023-02-26T14:42:58;97500.34;;;-0.18;65.54
69955;BME280;57279;55.912;37.490;2023-02-26T14:45:35;97516.44;;;-0.08;65.08
69955;BME280;57279;55.912;37.490;2023-02-26T14:48:04;97538.81;;;-0.32;64.17
69955;BME280;57279;55.912;37.490;2023-02-26T15:01:57;97545.53;;;-0.89;69.25
69955;BME280;57279;55.912;37.490;2023-02-26T15:07:02;97552.91;;;-0.91;70.07
69955;BME280;57279;55.912;37.490;2023-02-26T15:12:16;97562.94;;;-0.81;72.22
69955;BME280;57279;55.912;37.490;2023-02-26T15:15:12;97562.78;;;-0.86;72.02
69955;BME280;57279;55.912;37.490;2023-02-26T15:18:04;97579.19;;;-0.89;72.37
69955;BME280;57279;55.912;37.490;2023-02-26T15:21:02;97574.09;;;-0.91;72.34
69955;BME280;57279;55.912;37.490;2023-02-26T15:24:03;97588.28;;;-0.73;72.27
69955;BME280;57279;55.912;37.490;2023-02-26T15:26:32;97585.63;;;-0.73;72.30
69955;BME280;57279;55.912;37.490;2023-02-26T15:29:03;97591.28;;;-0.70;72.14
69955;BME280;57279;55.912;37.490;2023-02-26T15:31:33;97602.31;;;-0.96;73.15
69955;BME280;57279;55.912;37.490;2023-02-26T15:34:01;97594.50;;;-0.91;73.01
69955;BME280;57279;55.912;37.490;2023-02-26T15:36:29;97601.16;;;-1.01;72.95
69955;BME280;57279;55.912;37.490;2023-02-26T15:39:00;97595.81;;;-1.12;73.53
69955;BME280;57279;55.912;37.490;2023-02-26T15:41:28;97605.75;;;-0.96;73.48
69955;BME280;57279;55.912;37.490;2023-02-26T15:44:06;97612.56;;;-0.88;73.45
69955;BME280;57279;55.912;37.490;2023-02-26T15:46:39;97613.16;;;-0.86;73.57
69955;BME280;57279;55.912;37.490;2023-02-26T15:49:12;97618.44;;;-0.98;74.21
69955;BME280;57279;55.912;37.490;2023-02-26T15:51:40;97626.72;;;-0.94;75.17
69955;BME280;57279;55.912;37.490;2023-02-26T15:54:14;97634.91;;;-0.84;75.39
69955;BME280;57279;55.912;37.490;2023-02-26T15:56:40;97640.44;;;-0.86;75.74
69955;BME280;57279;55.912;37.490;2023-02-26T15:59:10;97645.84;;;-0.92;76.04
69955;BME280;57279;55.912;37.490;2023-02-26T16:01:39;97654.81;;;-0.93;76.26
69955;BME280;57279;55.912;37.490;2023-02-26T16:04:17;97659.53;;;-0.95;76.20
69955;BME280;57279;55.912;37.490;2023-02-26T16:06:46;97654.97;;;-0.88;76.58
69955;BME280;57279;55.912;37.490;2023-02-26T16:09:37;97659.25;;;-1.29;75.62
69955;BME280;57279;55.912;37.490;2023-02-26T16:12:12;97654.41;;;-1.21;76.08
69955;BME280;57279;55.912;37.490;2023-02-26T16:14:43;97654.75;;;-1.29;77.26
69955;BME280;57279;55.912;37.490;2023-02-26T16:17:22;97663.72;;;-1.30;77.08
69955;BME280;57279;55.912;37.490;2023-02-26T16:19:55;97662.91;;;-1.30;76.08
69955;BME280;57279;55.912;37.490;2023-02-26T16:22:31;97661.06;;;-1.30;75.08
69955;BME280;57279;55.912;37.490;2023-02-26T16:25:07;97676.72;;;-1.28;74.26
69955;BME280;57279;55.912;37.490;2023-02-26T16:27:34;97682.06;;;-1.47;73.28
69955;BME280;57279;55.912;37.490;2023-02-26T16:30:03;97684.19;;;-1.37;72.69
69955;BME280;57279;55.912;37.490;2023-02-26T16:32:32;97693.38;;;-1.58;71.49
69955;BME280;57279;55.912;37.490;2023-02-26T16:35:08;97704.22;;;-1.60;71.15
69955;BME280;57279;55.912;37.490;2023-02-26T16:37:35;97699.41;;;-1.51;71.13
69955;BME280;57279;55.912;37.490;2023-02-26T16:40:19;97703.91;;;-1.51;71.16
69955;BME280;57279;55.912;37.490;2023-02-26T16:43:03;97704.13;;;-1.53;71.31
69955;BME280;57279;55.912;37.490;2023-02-26T16:48:00;97708.78;;;-1.48;71.44
69955;BME280;57279;55.912;37.490;2023-02-26T16:50:30;97713.47;;;-1.50;71.43
69955;BME280;57279;55.912;37.490;2023-02-26T16:53:05;97723.56;;;-1.59;71.09
69955;BME280;57279;55.912;37.490;2023-02-26T16:55:34;97727.59;;;-1.57;70.84
69955;BME280;57279;55.912;37.490;2023-02-26T16:58:02;97728.63;;;-1.58;70.76
69955;BME280;57279;55.912;37.490;2023-02-26T17:00:31;97726.88;;;-1.64;70.82
69955;BME280;57279;55.912;37.490;2023-02-26T17:03:11;97742.88;;;-1.59;70.44
69955;BME280;57279;55.912;37.490;2023-02-26T17:05:42;97750.06;;;-1.66;70.39
69955;BME280;57279;55.912;37.490;2023-02-26T17:08:15;97751.69;;;-1.65;70.40
69955;BME280;57279;55.912;37.490;2023-02-26T17:11:03;97749.94;;;-1.71;69.62
69955;BME280;57279;55.912;37.490;2023-02-26T17:13:32;97763.75;;;-1.69;69.42
69955;BME280;57279;55.912;37.490;2023-02-26T17:16:00;97769.97;;;-2.00;69.51
69955;BME280;57279;55.912;37.490;2023-02-26T17:18:27;97777.78;;;-1.87;69.30
69955;BME280;57279;55.912;37.490;2023-02-26T17:20:54;97783.88;;;-1.86;68.55
69955;BME280;57279;55.912;37.490;2023-02-26T17:23:20;97786.91;;;-1.83;68.77
69955;BME280;57279;55.912;37.490;2023-02-26T17:25:51;97770.38;;;-1.78;68.28
69955;BME280;57279;55.912;37.490;2023-02-26T17:28:25;97780.19;;;-1.85;68.09
69955;BME280;57279;55.912;37.490;2023-02-26T17:30:52;97785.03;;;-2.01;68.04
69955;BME280;57279;55.912;37.490;2023-02-26T17:33:18;97787.28;;;-2.04;67.59
69955;BME280;57279;55.912;37.490;2023-02-26T17:35:44;97784.44;;;-2.03;68.40
69955;BME280;57279;55.912;37.490;2023-02-26T17:38:11;97788.47;;;-2.00;68.14
69955;BME280;57279;55.912;37.490;2023-02-26T17:40:38;97793.38;;;-2.04;68.53
69955;BME280;57279;55.912;37.490;2023-02-26T17:43:05;97798.78;;;-1.92;68.87
69955;BME280;57279;55.912;37.490;2023-02-26T17:45:32;97807.81;;;-2.00;67.90
69955;BME280;57279;55.912;37.490;2023-02-26T17:47:58;97808.34;;;-1.91;68.07
69955;BME280;57279;55.912;37.490;2023-02-26T17:52:55;97810.97;;;-1.91;67.30
69955;BME280;57279;55.912;37.490;2023-02-26T17:55:21;97811.69;;;-1.77;67.14
69955;BME280;57279;55.912;37.490;2023-02-26T17:57:47;97813.59;;;-1.84;67.17
69955;BME280;57279;55.912;37.490;2023-02-26T18:00:15;97815.31;;;-1.97;66.85
69955;BME280;57279;55.912;37.490;2023-02-26T18:02:41;97816.84;;;-2.07;66.87
69955;BME280;57279;55.912;37.490;2023-02-26T18:05:07;97825.78;;;-2.08;67.08
69955;BME280;57279;55.912;37.490;2023-02-26T18:07:34;97829.09;;;-2.13;67.33
69955;BME280;57279;55.912;37.490;2023-02-26T18:10:00;97837.00;;;-2.13;67.32
69955;BME280;57279;55.912;37.490;2023-02-26T18:12:25;97833.00;;;-1.97;67.63
69955;BME280;57279;55.912;37.490;2023-02-26T18:14:51;97841.97;;;-1.98;67.57
69955;BME280;57279;55.912;37.490;2023-02-26T18:17:22;97839.59;;;-2.06;67.86
69955;BME280;57279;55.912;37.490;2023-02-26T18:19:49;97849.69;;;-1.97;67.48
69955;BME280;57279;55.912;37.490;2023-02-26T18:22:16;97845.41;;;-1.72;68.37
69955;BME280;57279;55.912;37.490;2023-02-26T18:24:43;97855.09;;;-1.60;67.74
69955;BME280;57279;55.912;37.490;2023-02-26T18:27:13;97863.28;;;-1.68;67.07
69955;BME280;57279;55.912;37.490;2023-02-26T18:29:40;97866.72;;;-1.86;66.74
69955;BME280;57279;55.912;37.490;2023-02-26T18:32:07;97873.59;;;-1.85;67.09
69955;BME280;57279;55.912;37.490;2023-02-26T18:34:33;97874.38;;;-1.78;67.24
69955;BME280;57279;55.912;37.490;2023-02-26T18:36:59;97888.28;;;-2.14;67.10
69955;BME280;57279;55.912;37.490;2023-02-26T18:39:28;97888.00;;;-2.06;67.58
69955;BME280;57279;55.912;37.490;2023-02-26T18:41:56;97884.56;;;-2.06;67.75
69955;BME280;57279;55.912;37.490;2023-02-26T18:44:22;97884.94;;;-2.03;67.91
69955;BME280;57279;55.912;37.490;2023-02-26T18:46:48;97889.63;;;-2.05;67.78
69955;BME280;57279;55.912;37.490;2023-02-26T18:49:17;97898.59;;;-2.06;68.05
69955;BME280;57279;55.912;37.490;2023-02-26T18:51:43;97907.81;;;-2.15;67.99
69955;BME280;57279;55.912;37.490;2023-02-26T18:54:09;97902.66;;;-2.35;68.69
69955;BME280;57279;55.912;37.490;2023-02-26T18:56:34;97898.75;;;-2.32;68.54
69955;BME280;57279;55.912;37.490;2023-02-26T18:59:01;97911.16;;;-2.33;67.91
69955;BME280;57279;55.912;37.490;2023-02-26T19:01:27;97920.28;;;-2.29;68.49
69955;BME280;57279;55.912;37.490;2023-02-26T19:03:55;97920.50;;;-2.30;68.50
69955;BME280;57279;55.912;37.490;2023-02-26T19:06:21;97926.63;;;-2.30;68.00
69955;BME280;57279;55.912;37.490;2023-02-26T19:08:47;97931.44;;;-2.20;68.28
69955;BME280;57279;55.912;37.490;2023-02-26T19:11:12;97933.44;;;-2.16;68.45
69955;BME280;57279;55.912;37.490;2023-02-26T19:13:38;97941.06;;;-2.32;68.60
69955;BME280;57279;55.912;37.490;2023-02-26T19:16:04;97928.03;;;-2.27;67.88
69955;BME280;57279;55.912;37.490;2023-02-26T19:18:32;97935.22;;;-2.41;68.91
69955;BME280;57279;55.912;37.490;2023-02-26T19:20:58;97940.91;;;-2.44;68.78
69955;BME280;57279;55.912;37.490;2023-02-26T19:23:26;97936.06;;;-2.47;69.02
69955;BME280;57279;55.912;37.490;2023-02-26T19:25:52;97948.22;;;-2.40;68.84
69955;BME280;57279;55.912;37.490;2023-02-26T19:28:18;97950.88;;;-2.46;68.62
69955;BME280;57279;55.912;37.490;2023-02-26T19:30:44;97960.66;;;-2.53;68.65
69955;BME280;57279;55.912;37.490;2023-02-26T19:33:10;97960.50;;;-2.59;68.80
69955;BME280;57279;55.912;37.490;2023-02-26T19:35:36;97963.72;;;-2.50;69.35
69955;BME280;57279;55.912;37.490;2023-02-26T19:38:02;97966.19;;;-2.62;68.97
69955;BME280;57279;55.912;37.490;2023-02-26T19:40:27;97971.72;;;-2.70;69.47
69955;BME280;57279;55.912;37.490;2023-02-26T19:42:54;97973.56;;;-2.77;70.91
69955;BME280;57279;55.912;37.490;2023-02-26T19:45:20;97972.53;;;-2.63;70.89
69955;BME280;57279;55.912;37.490;2023-02-26T19:47:45;97985.09;;;-2.58;70.91
69955;BME280;57279;55.912;37.490;2023-02-26T19:50:12;97988.13;;;-2.54;70.25
69955;BME280;57279;55.912;37.490;2023-02-26T19:52:39;97988.38;;;-2.63;69.75
69955;BME280;57279;55.912;37.490;2023-02-26T19:55:06;97988.94;;;-2.54;69.49
69955;BME280;57279;55.912;37.490;2023-02-26T19:57:32;97992.44;;;-2.67;69.25
69955;BME280;57279;55.912;37.490;2023-02-26T19:59:57;97999.50;;;-2.54;69.49
69955;BME280;57279;55.912;37.490;2023-02-26T20:02:24;97994.44;;;-2.56;69.16
69955;BME280;57279;55.912;37.490;2023-02-26T20:04:50;98012.16;;;-2.63;68.82
69955;BME280;57279;55.912;37.490;2023-02-26T20:07:16;98002.19;;;-2.67;69.18
69955;BME280;57279;55.912;37.490;2023-02-26T20:09:41;98014.00;;;-2.77;69.15
69955;BME280;57279;55.912;37.490;2023-02-26T20:12:07;98021.13;;;-2.77;69.11
69955;BME280;57279;55.912;37.490;2023-02-26T20:14:33;98027.59;;;-2.73;69.32
69955;BME280;57279;55.912;37.490;2023-02-26T20:16:59;98022.28;;;-2.60;69.07
69955;BME280;57279;55.912;37.490;2023-02-26T20:19:24;98040.38;;;-2.57;69.17
69955;BME280;57279;55.912;37.490;2023-02-26T20:21:50;98033.09;;;-2.75;69.20
69955;BME280;57279;55.912;37.490;2023-02-26T20:24:16;98040.41;;;-2.77;69.39
69955;BME280;57279;55.912;37.490;2023-02-26T20:26:44;98045.31;;;-2.73;69.29
69955;BME280;57279;55.912;37.490;2023-02-26T20:29:10;98045.72;;;-2.83;69.33
69955;BME280;57279;55.912;37.490;2023-02-26T20:31:36;98056.44;;;-2.65;68.97
69955;BME280;57279;55.912;37.490;2023-02-26T20:34:01;98057.69;;;-2.61;68.83
69955;BME280;57279;55.912;37.490;2023-02-26T20:36:27;98071.53;;;-2.72;68.46
69955;BME280;57279;55.912;37.490;2023-02-26T20:38:53;98072.72;;;-2.75;68.90
69955;BME280;57279;55.912;37.490;2023-02-26T20:41:19;98084.50;;;-2.64;68.97
69955;BME280;57279;55.912;37.490;2023-02-26T20:43:44;98085.47;;;-2.51;69.08
69955;BME280;57279;55.912;37.490;2023-02-26T20:46:10;98075.75;;;-2.58;68.50
69955;BME280;57279;55.912;37.490;2023-02-26T20:48:37;98090.00;;;-2.59;68.34
69955;BME280;57279;55.912;37.490;2023-02-26T20:51:06;98088.78;;;-2.63;69.11
69955;BME280;57279;55.912;37.490;2023-02-26T20:53:33;98096.09;;;-2.65;69.30
69955;BME280;57279;55.912;37.490;2023-02-26T20:55:58;98107.91;;;-2.74;68.69
69955;BME280;57279;55.912;37.490;2023-02-26T20:58:24;98114.81;;;-2.80;68.99
69955;BME280;57279;55.912;37.490;2023-02-26T21:00:51;98115.41;;;-2.71;69.16
69955;BME280;57279;55.912;37.490;2023-02-26T21:03:19;98127.41;;;-2.62;68.96
69955;BME280;57279;55.912;37.490;2023-02-26T21:05:44;98122.91;;;-2.61;68.56
69955;BME280;57279;55.912;37.490;2023-02-26T21:08:12;98127.00;;;-2.59;69.08
69955;BME280;57279;55.912;37.490;2023-02-26T21:10:38;98134.06;;;-2.46;68.93
69955;BME280;57279;55.912;37.490;2023-02-26T21:13:06;98139.13;;;-2.31;68.83
69955;BME280;57279;55.912;37.490;2023-02-26T21:15:32;98151.16;;;-2.28;68.38
69955;BME280;57279;55.912;37.490;2023-02-26T21:17:58;98147.28;;;-2.46;68.36
69955;BME280;57279;55.912;37.490;2023-02-26T21:20:24;98152.00;;;-2.54;68.64
69955;BME280;57279;55.912;37.490;2023-02-26T21:22:51;98156.06;;;-2.59;68.99
69955;BME280;57279;55.912;37.490;2023-02-26T21:25:19;98157.50;;;-2.63;69.17
69955;BME280;57279;55.912;37.490;2023-02-26T21:27:46;98161.97;;;-2.70;69.12
69955;BME280;57279;55.912;37.490;2023-02-26T21:30:14;98172.72;;;-2.58;69.09
69955;BME280;57279;55.912;37.490;2023-02-26T21:32:40;98183.88;;;-2.76;69.19
69955;BME280;57279;55.912;37.490;2023-02-26T21:35:07;98184.91;;;-2.77;69.58
69955;BME280;57279;55.912;37.490;2023-02-26T21:37:35;98188.19;;;-2.68;69.53
69955;BME280;57279;55.912;37.490;2023-02-26T21:40:01;98187.16;;;-2.74;69.40
69955;BME280;57279;55.912;37.490;2023-02-26T21:42:26;98196.72;;;-2.66;69.59
69955;BME280;57279;55.912;37.490;2023-02-26T21:44:52;98207.06;;;-2.71;69.44
69955;BME280;57279;55.912;37.490;2023-02-26T21:47:18;98215.00;;;-2.65;69.49
69955;BME280;57279;55.912;37.490;2023-02-26T21:49:43;98210.94;;;-2.54;69.12
69955;BME280;57279;55.912;37.490;2023-02-26T21:52:10;98219.88;;;-2.82;69.20
69955;BME280;57279;55.912;37.490;2023-02-26T21:54:36;98226.97;;;-2.82;69.46
69955;BME280;57279;55.912;37.490;2023-02-26T21:57:01;98238.19;;;-2.73;69.83
69955;BME280;57279;55.912;37.490;2023-02-26T21:59:27;98240.03;;;-2.61;70.19
69955;BME280;57279;55.912;37.490;2023-02-26T22:01:53;98234.91;;;-2.69;69.80
69955;BME280;57279;55.912;37.490;2023-02-26T22:04:18;98244.28;;;-2.53;69.95
69955;BME280;57279;55.912;37.490;2023-02-26T22:06:45;98246.50;;;-2.77;70.01
69955;BME280;57279;55.912;37.490;2023-02-26T22:09:11;98244.88;;;-2.78;70.55
69955;BME280;57279;55.912;37.490;2023-02-26T22:11:37;98249.75;;;-2.68;70.35
69955;BME280;57279;55.912;37.490;2023-02-26T22:14:03;98261.16;;;-2.54;69.94
69955;BME280;57279;55.912;37.490;2023-02-26T22:16:29;98264.81;;;-2.48;69.49
69955;BME280;57279;55.912;37.490;2023-02-26T22:18:54;98270.72;;;-2.60;69.35
69955;BME280;57279;55.912;37.490;2023-02-26T22:21:20;98274.56;;;-2.56;69.51
69955;BME280;57279;55.912;37.490;2023-02-26T22:23:48;98272.94;;;-2.50;69.67
69955;BME280;57279;55.912;37.490;2023-02-26T22:26:14;98286.56;;;-2.46;69.63
69955;BME280;57279;55.912;37.490;2023-02-26T22:28:39;98285.16;;;-2.49;69.91
69955;BME280;57279;55.912;37.490;2023-02-26T22:31:05;98290.81;;;-2.65;70.09
69955;BME280;57279;55.912;37.490;2023-02-26T22:33:31;98307.47;;;-2.65;69.77
69955;BME280;57279;55.912;37.490;2023-02-26T22:35:57;98301.81;;;-2.62;69.66
69955;BME280;57279;55.912;37.490;2023-02-26T22:38:24;98305.47;;;-2.56;69.66
69955;BME280;57279;55.912;37.490;2023-02-26T22:40:51;98316.66;;;-2.54;69.29
69955;BME280;57279;55.912;37.490;2023-02-26T22:43:17;98312.75;;;-2.65;71.95
69955;BME280;57279;55.912;37.490;2023-02-26T22:45:42;98335.91;;;-2.80;71.02
69955;BME280;57279;55.912;37.490;2023-02-26T22:48:08;98329.00;;;-2.81;70.89
69955;BME280;57279;55.912;37.490;2023-02-26T22:50:34;98329.00;;;-2.75;70.52
69955;BME280;57279;55.912;37.490;2023-02-26T22:53:00;98338.34;;;-2.85;70.13
69955;BME280;57279;55.912;37.490;2023-02-26T22:55:26;98352.16;;;-2.77;69.85
69955;BME280;57279;55.912;37.490;2023-02-26T22:57:51;98350.72;;;-2.86;69.60
69955;BME280;57279;55.912;37.490;2023-02-26T23:00:18;98352.16;;;-2.77;69.39
69955;BME280;57279;55.912;37.490;2023-02-26T23:02:45;98367.59;;;-2.80;69.34
69955;BME280;57279;55.912;37.490;2023-02-26T23:05:11;98361.13;;;-2.78;69.65
69955;BME280;57279;55.912;37.490;2023-02-26T23:07:38;98373.44;;;-2.91;69.51
69955;BME280;57279;55.912;37.490;2023-02-26T23:10:05;98386.97;;;-2.66;69.41
69955;BME280;57279;55.912;37.490;2023-02-26T23:12:31;98378.41;;;-2.75;69.17
69955;BME280;57279;55.912;37.490;2023-02-26T23:14:57;98376.16;;;-2.78;69.63
69955;BME280;57279;55.912;37.490;2023-02-26T23:17:24;98378.47;;;-2.48;69.50